Wheatland, Oklahoma
Current Conditions -  °F | °C
As of 1:52 AM on Friday 24 Oct 2014 (Local Time) from KOKC Reporting Station
Few Clouds Few Clouds  
Wind Chill: 60°   Ceiling: Unl
Heat Index: 60°   Visibility: 10mi
Dew Point: 56°   Wind: 5mph
Humidity: 86%   Direction: 170°S
Pressure: 30.09"   Gusts: NA
Location:  35.4°N, 97.65°W
Report Text: KOKC 240652Z 17004KT 10SM FEW250 16/13 A3009 RMK AO2 SLP180 T01560133
Loading
Personal Weather Stations






























Interactive Weather Map
Tropical Storm Tracking
New forecast layout! Learn more

10-Day Weather Forecast

Advertisements
Track Severe Weather on mobile